Airfield :
LOGIN :

Register | Disclaimer

   EN    FR    IT 

 










Legend :    VFR   Marginal VFR   IFR   Intensive IFR   Very Intensive IFR
Visi :
Ceiling :
>= 8 km
>= 3000ft
5 to 8 km
1000 to 3000 ft
1500m to 5 km
500 to 1000 ft
800 to 1500m
200 to 500 ft
< 800m
< 200 ft
Symbols :   Thunderstorms  Fog  Heavy snow  Heavy precipitations  Wind > 20 kt
SIGMETs :     Misc.  Thunderstorms  Icing  Turbulence  Mountain Waves  Volcanic Ashes






- Airport Elevation : 408 ft
- IATA code : SOB


LHSM - Sarmellek Balaton

CURRENT METAR :
  • 030715Z AUTO 00000KT CAVOK 24/15 Q1020 NOSIG

EXPIRED METARs :
  • 030645Z AUTO VRB01KT CAVOK 22/15 Q1020 NOSIG
  • 030615Z AUTO 31003KT 270V350 CAVOK 21/15 Q1020 NOSIG
  • 030545Z AUTO 33003KT 290V360 CAVOK 19/16 Q1020 NOSIG
  • 030515Z AUTO 32004KT CAVOK 18/14 Q1020 NOSIG
  • 030445Z AUTO 31004KT 280V340 CAVOK 16/14 Q1020
  • 030415Z AUTO 30003KT CAVOK 16/13 Q1019

TAF TAF LHSM
Valid from the 03 at 06:00 until the 03 at 15:00 UTC


030515Z 0306/0315 33006KT CAVOK
TEMPO 0306/0310 VRB03KT



MET'MAP, your aeronautical weather chart ! - Copyright ORBIFLY December 2007 - Disclaimer

ORBIFLY MET'MAP TEAM :

Programming & Development : Alexandra Zaïnal
Original concept : Baudouin d'Aumeries
Technical & hardware support : Manuel Goepfert
Assistance : Marc-Olivier Méhu




SOURCES & CREDITS :

   NOAA